Time,TemperatureF,DewpointF,PressureIn,WindDirection,WindDirectionDegrees,WindSpeedMPH,WindSpeedGustMPH,Humidity,HourlyPrecipIn,Conditions,Clouds,dailyrainin,SoftwareType,DateUTC
2013-05-24 00:00:00,49.5,41.2,30.01,NW,321,0.0,0.0,73,0.00,,,0.00,Wunderground v.1.15,2013-05-24 07:00:00,
2013-05-24 00:05:00,49.4,41.1,30.00,NW,321,0.0,0.0,73,0.00,,,0.00,Wunderground v.1.15,2013-05-24 07:05:00,
2013-05-24 00:10:00,49.4,41.5,30.00,NW,321,0.0,0.0,74,0.00,,,0.00,Wunderground v.1.15,2013-05-24 07:10:00,
2013-05-24 00:15:00,49.3,41.4,30.00,NW,321,0.0,0.0,74,0.00,,,0.00,Wunderground v.1.15,2013-05-24 07:15:00,
2013-05-24 00:20:00,49.2,41.3,30.00,NW,321,0.0,0.0,74,0.00,,,0.00,Wunderground v.1.15,2013-05-24 07:20:00,
2013-05-24 00:25:00,49.0,41.4,30.01,NW,321,0.0,0.0,75,0.00,,,0.00,Wunderground v.1.15,2013-05-24 07:25:00,
2013-05-24 00:30:00,49.0,41.4,30.00,NW,321,0.0,0.0,75,0.00,,,0.00,Wunderground v.1.15,2013-05-24 07:30:00,
2013-05-24 00:40:00,48.8,41.2,30.00,NW,321,0.0,0.0,75,0.00,,,0.00,Wunderground v.1.15,2013-05-24 07:40:00,
2013-05-24 00:45:00,48.8,41.6,30.00,NW,321,0.0,0.0,76,0.00,,,0.00,Wunderground v.1.15,2013-05-24 07:45:00,
2013-05-24 00:50:00,48.7,41.5,30.00,NW,321,0.0,0.0,76,0.00,,,0.00,Wunderground v.1.15,2013-05-24 07:50:00,
2013-05-24 00:55:00,48.8,41.6,30.00,NW,321,0.0,0.0,76,0.00,,,0.00,Wunderground v.1.15,2013-05-24 07:55:00,
2013-05-24 01:00:00,48.8,41.6,30.01,NW,321,0.0,0.0,76,0.00,,,0.00,Wunderground v.1.15,2013-05-24 08:00:00,
2013-05-24 01:10:00,48.7,41.5,30.00,NW,321,0.0,0.0,76,0.00,,,0.00,Wunderground v.1.15,2013-05-24 08:10:00,
2013-05-24 01:15:00,48.6,41.4,30.00,NW,321,0.0,0.0,76,0.00,,,0.00,Wunderground v.1.15,2013-05-24 08:15:00,
2013-05-24 01:20:00,48.4,41.5,30.00,NW,321,0.0,0.0,77,0.00,,,0.00,Wunderground v.1.15,2013-05-24 08:20:00,
2013-05-24 01:25:00,48.2,41.7,30.00,NW,321,0.0,0.0,78,0.00,,,0.00,Wunderground v.1.15,2013-05-24 08:25:00,
2013-05-24 01:30:00,48.2,41.7,30.00,NW,323,0.0,0.0,78,0.00,,,0.00,Wunderground v.1.15,2013-05-24 08:30:00,
2013-05-24 01:35:00,48.5,42.0,30.00,NW,323,0.0,0.0,78,0.00,,,0.00,Wunderground v.1.15,2013-05-24 08:35:00,
2013-05-24 01:45:00,48.5,41.6,30.00,NW,323,0.0,0.0,77,0.00,,,0.00,Wunderground v.1.15,2013-05-24 08:45:00,
2013-05-24 01:50:00,48.3,41.8,30.00,NW,323,0.0,0.0,78,0.00,,,0.00,Wunderground v.1.15,2013-05-24 08:50:00,
2013-05-24 01:55:00,48.0,41.5,30.00,NW,323,0.0,0.0,78,0.00,,,0.00,Wunderground v.1.15,2013-05-24 08:55:00,
2013-05-24 02:05:00,47.9,41.7,30.00,NW,323,0.0,0.0,79,0.00,,,0.00,Wunderground v.1.15,2013-05-24 09:05:00,
2013-05-24 02:10:00,47.8,41.6,30.00,NW,323,0.0,0.0,79,0.00,,,0.00,Wunderground v.1.15,2013-05-24 09:10:00,
2013-05-24 02:15:00,47.7,41.8,30.00,NW,323,0.0,0.0,80,0.00,,,0.00,Wunderground v.1.15,2013-05-24 09:15:00,
2013-05-24 02:25:00,47.8,41.9,30.00,NW,323,0.0,0.0,80,0.00,,,0.00,Wunderground v.1.15,2013-05-24 09:25:00,
2013-05-24 02:30:00,47.8,42.3,30.00,NW,323,0.0,0.0,81,0.00,,,0.00,Wunderground v.1.15,2013-05-24 09:30:00,
2013-05-24 02:35:00,47.8,42.3,30.00,NW,323,0.0,0.0,81,0.00,,,0.00,Wunderground v.1.15,2013-05-24 09:35:00,
2013-05-24 02:40:00,47.8,42.3,29.99,NW,323,0.0,0.0,81,0.00,,,0.00,Wunderground v.1.15,2013-05-24 09:40:00,
2013-05-24 02:50:00,47.6,42.4,29.99,NW,323,0.0,0.0,82,0.00,,,0.00,Wunderground v.1.15,2013-05-24 09:50:00,
2013-05-24 02:55:00,47.6,42.7,29.99,NW,323,0.0,0.0,83,0.00,,,0.00,Wunderground v.1.15,2013-05-24 09:55:00,
2013-05-24 03:00:00,47.5,42.6,29.99,NW,323,0.0,0.0,83,0.00,,,0.00,Wunderground v.1.15,2013-05-24 10:00:00,
2013-05-24 03:05:00,47.5,42.6,29.99,NW,323,0.0,0.0,83,0.00,,,0.00,Wunderground v.1.15,2013-05-24 10:05:00,
2013-05-24 03:10:00,47.5,42.6,29.99,NW,323,0.0,0.0,83,0.00,,,0.00,Wunderground v.1.15,2013-05-24 10:10:00,
2013-05-24 03:15:00,47.6,42.7,29.99,NW,323,0.0,0.0,83,0.00,,,0.00,Wunderground v.1.15,2013-05-24 10:15:00,
2013-05-24 03:25:00,47.3,42.4,29.99,NW,323,0.0,0.0,83,0.00,,,0.00,Wunderground v.1.15,2013-05-24 10:25:00,
2013-05-24 03:30:00,47.1,42.5,29.99,NW,323,0.0,0.0,84,0.00,,,0.00,Wunderground v.1.15,2013-05-24 10:30:00,
2013-05-24 03:35:00,46.9,42.3,29.99,NW,323,0.0,0.0,84,0.00,,,0.00,Wunderground v.1.15,2013-05-24 10:35:00,
2013-05-24 03:40:00,46.8,42.2,29.99,NW,323,0.0,0.0,84,0.00,,,0.00,Wunderground v.1.15,2013-05-24 10:40:00,
2013-05-24 03:45:00,46.6,42.3,29.99,NW,323,0.0,0.0,85,0.00,,,0.00,Wunderground v.1.15,2013-05-24 10:45:00,
2013-05-24 03:55:00,46.2,41.9,29.99,NW,323,0.0,0.0,85,0.00,,,0.00,Wunderground v.1.15,2013-05-24 10:55:00,
2013-05-24 04:00:00,46.0,42.0,29.99,NW,323,0.0,0.0,86,0.00,,,0.00,Wunderground v.1.15,2013-05-24 11:00:00,
2013-05-24 04:05:00,46.0,42.0,29.99,NW,323,0.0,0.0,86,0.00,,,0.00,Wunderground v.1.15,2013-05-24 11:05:00,
2013-05-24 04:10:00,45.9,41.9,29.99,NW,323,0.0,0.0,86,0.00,,,0.00,Wunderground v.1.15,2013-05-24 11:10:00,
2013-05-24 04:15:00,45.7,41.8,29.99,NW,323,0.0,0.0,86,0.00,,,0.00,Wunderground v.1.15,2013-05-24 11:15:00,
2013-05-24 04:20:00,45.6,42.0,29.99,NW,323,0.0,0.0,87,0.00,,,0.00,Wunderground v.1.15,2013-05-24 11:20:00,
2013-05-24 04:25:00,45.4,41.8,29.99,NW,323,0.0,0.0,87,0.00,,,0.00,Wunderground v.1.15,2013-05-24 11:25:00,
2013-05-24 04:35:00,45.4,42.3,29.99,NW,323,0.0,0.0,89,0.00,,,0.00,Wunderground v.1.15,2013-05-24 11:35:00,
2013-05-24 04:40:00,45.5,42.2,29.99,NW,323,0.0,0.0,88,0.00,,,0.00,Wunderground v.1.15,2013-05-24 11:40:00,
2013-05-24 04:45:00,45.4,42.3,29.99,NW,323,0.0,0.0,89,0.00,,,0.00,Wunderground v.1.15,2013-05-24 11:45:00,
2013-05-24 04:55:00,45.4,42.6,29.99,NW,323,0.0,0.0,90,0.00,,,0.00,Wunderground v.1.15,2013-05-24 11:55:00,
2013-05-24 05:05:00,45.6,42.8,29.99,NW,323,0.0,0.0,90,0.00,,,0.00,Wunderground v.1.15,2013-05-24 12:05:00,
2013-05-24 05:10:00,45.6,42.8,29.99,NW,323,0.0,0.0,90,0.00,,,0.00,Wunderground v.1.15,2013-05-24 12:10:00,
2013-05-24 05:15:00,45.5,42.7,29.99,NW,323,0.0,0.0,90,0.00,,,0.00,Wunderground v.1.15,2013-05-24 12:15:00,
2013-05-24 05:20:00,45.4,42.6,29.99,NW,323,0.0,0.0,90,0.00,,,0.00,Wunderground v.1.15,2013-05-24 12:20:00,
2013-05-24 05:25:00,45.3,42.5,30.00,NW,323,0.0,0.0,90,0.00,,,0.00,Wunderground v.1.15,2013-05-24 12:25:00,
2013-05-24 05:30:00,45.1,42.3,30.00,NW,323,0.0,0.0,90,0.00,,,0.00,Wunderground v.1.15,2013-05-24 12:30:00,
2013-05-24 05:35:00,45.1,42.6,30.00,NW,323,0.0,0.0,91,0.00,,,0.00,Wunderground v.1.15,2013-05-24 12:35:00,
2013-05-24 05:45:00,44.9,42.4,30.00,NW,323,0.0,0.0,91,0.00,,,0.00,Wunderground v.1.15,2013-05-24 12:45:00,
2013-05-24 05:50:00,44.9,42.4,30.00,NW,323,0.0,0.0,91,0.00,,,0.00,Wunderground v.1.15,2013-05-24 12:50:00,
2013-05-24 05:55:00,44.9,42.4,30.00,NW,323,0.0,0.0,91,0.00,,,0.00,Wunderground v.1.15,2013-05-24 12:55:00,
2013-05-24 06:00:00,44.9,42.4,30.00,NW,323,0.0,0.0,91,0.00,,,0.00,Wunderground v.1.15,2013-05-24 13:00:00,
2013-05-24 06:05:00,45.0,42.8,30.00,NW,323,0.0,0.0,92,0.00,,,0.00,Wunderground v.1.15,2013-05-24 13:05:00,
2013-05-24 06:15:00,44.9,42.4,30.00,NW,323,0.0,0.0,91,0.00,,,0.00,Wunderground v.1.15,2013-05-24 13:15:00,
2013-05-24 06:20:00,45.0,42.5,30.00,NW,323,0.0,0.0,91,0.00,,,0.00,Wunderground v.1.15,2013-05-24 13:20:00,
2013-05-24 06:25:00,45.0,42.5,30.00,NW,323,0.0,0.0,91,0.00,,,0.00,Wunderground v.1.15,2013-05-24 13:25:00,
2013-05-24 06:35:00,45.2,42.7,30.00,NE,39,0.0,0.0,91,0.00,,,0.00,Wunderground v.1.15,2013-05-24 13:35:00,
2013-05-24 06:40:00,45.3,42.5,30.01,NE,39,0.0,0.0,90,0.00,,,0.00,Wunderground v.1.15,2013-05-24 13:40:00,
2013-05-24 06:50:00,45.9,43.4,30.01,NE,39,0.0,0.0,91,0.00,,,0.00,Wunderground v.1.15,2013-05-24 13:50:00,
2013-05-24 06:55:00,46.5,43.7,30.01,NE,39,0.0,0.0,90,0.00,,,0.00,Wunderground v.1.15,2013-05-24 13:55:00,
2013-05-24 07:00:00,47.0,43.9,30.01,NE,39,0.0,0.0,89,0.00,,,0.00,Wunderground v.1.15,2013-05-24 14:00:00,
2013-05-24 07:05:00,47.8,44.4,30.01,NE,39,0.0,0.0,88,0.00,,,0.00,Wunderground v.1.15,2013-05-24 14:05:00,
2013-05-24 07:15:00,49.1,45.1,30.01,NE,46,0.0,0.0,86,0.00,,,0.00,Wunderground v.1.15,2013-05-24 14:15:00,
2013-05-24 07:20:00,49.4,45.1,30.01,ESE,102,0.0,0.0,85,0.00,,,0.00,Wunderground v.1.15,2013-05-24 14:20:00,
2013-05-24 07:25:00,49.4,44.8,30.01,ESE,102,0.0,0.0,84,0.00,,,0.00,Wunderground v.1.15,2013-05-24 14:25:00,
2013-05-24 07:30:00,49.4,44.8,30.01,ESE,103,0.0,0.0,84,0.00,,,0.00,Wunderground v.1.15,2013-05-24 14:30:00,
2013-05-24 07:35:00,49.5,44.9,30.01,ESE,103,0.0,0.0,84,0.00,,,0.00,Wunderground v.1.15,2013-05-24 14:35:00,
2013-05-24 07:45:00,50.1,45.5,30.01,ESE,103,0.0,0.0,84,0.00,,,0.00,Wunderground v.1.15,2013-05-24 14:45:00,
2013-05-24 07:50:00,50.6,45.6,30.02,ESE,103,0.0,0.0,83,0.00,,,0.00,Wunderground v.1.15,2013-05-24 14:50:00,
2013-05-24 07:55:00,50.7,45.4,30.01,ESE,103,0.0,0.0,82,0.00,,,0.00,Wunderground v.1.15,2013-05-24 14:55:00,
2013-05-24 08:00:00,50.9,45.6,30.02,ESE,103,0.0,0.0,82,0.00,,,0.00,Wunderground v.1.15,2013-05-24 15:00:00,
2013-05-24 08:05:00,51.2,45.6,30.02,ESE,103,0.0,0.0,81,0.00,,,0.00,Wunderground v.1.15,2013-05-24 15:05:00,
2013-05-24 08:10:00,51.6,46.0,30.02,ESE,103,0.0,0.0,81,0.00,,,0.00,Wunderground v.1.15,2013-05-24 15:10:00,
2013-05-24 08:15:00,52.0,46.0,30.02,SE,140,0.0,1.0,80,0.00,,,0.00,Wunderground v.1.15,2013-05-24 15:15:00,
2013-05-24 08:20:00,52.3,46.0,30.02,SE,142,1.0,1.0,79,0.00,,,0.00,Wunderground v.1.15,2013-05-24 15:20:00,
2013-05-24 08:25:00,52.7,45.7,30.02,SE,142,0.0,1.0,77,0.00,,,0.00,Wunderground v.1.15,2013-05-24 15:25:00,
2013-05-24 08:30:00,53.0,46.0,30.02,SE,142,0.0,0.0,77,0.00,,,0.00,Wunderground v.1.15,2013-05-24 15:30:00,
2013-05-24 08:40:00,53.4,46.4,30.02,SE,144,0.0,1.0,77,0.00,,,0.00,Wunderground v.1.15,2013-05-24 15:40:00,
2013-05-24 08:45:00,54.0,46.3,30.02,SSE,156,0.0,1.0,75,0.00,,,0.00,Wunderground v.1.15,2013-05-24 15:45:00,
2013-05-24 08:50:00,54.5,46.4,30.02,SW,232,1.0,1.0,74,0.00,,,0.00,Wunderground v.1.15,2013-05-24 15:50:00,
2013-05-24 08:55:00,55.0,46.5,30.02,SW,232,0.0,1.0,73,0.00,,,0.00,Wunderground v.1.15,2013-05-24 15:55:00,
2013-05-24 09:00:00,55.8,47.3,30.02,SE,135,0.0,1.0,73,0.00,,,0.00,Wunderground v.1.15,2013-05-24 16:00:00,
2013-05-24 09:05:00,56.4,46.7,30.02,WSW,242,0.0,1.0,70,0.00,,,0.00,Wunderground v.1.15,2013-05-24 16:05:00,
2013-05-24 09:10:00,56.7,46.6,30.02,South,183,1.0,1.0,69,0.00,,,0.00,Wunderground v.1.15,2013-05-24 16:10:00,
2013-05-24 09:15:00,57.1,46.6,30.02,WSW,248,0.0,1.0,68,0.00,,,0.00,Wunderground v.1.15,2013-05-24 16:15:00,
2013-05-24 09:25:00,57.6,47.5,30.02,ESE,104,1.0,3.0,69,0.00,,,0.00,Wunderground v.1.15,2013-05-24 16:25:00,
2013-05-24 09:30:00,57.8,48.1,30.02,SSE,148,1.0,2.0,70,0.00,,,0.00,Wunderground v.1.15,2013-05-24 16:30:00,
2013-05-24 09:35:00,58.0,47.5,30.02,SE,141,1.0,3.0,68,0.00,,,0.00,Wunderground v.1.15,2013-05-24 16:35:00,
2013-05-24 09:40:00,58.1,47.6,30.02,SE,132,1.0,1.0,68,0.00,,,0.00,Wunderground v.1.15,2013-05-24 16:40:00,
2013-05-24 09:45:00,58.8,47.9,30.02,SE,133,1.0,1.0,67,0.00,,,0.00,Wunderground v.1.15,2013-05-24 16:45:00,
2013-05-24 09:50:00,59.7,47.5,30.02,SSE,147,1.0,1.0,64,0.00,,,0.00,Wunderground v.1.15,2013-05-24 16:50:00,
2013-05-24 09:55:00,59.7,47.1,30.02,SSE,148,1.0,1.0,63,0.00,,,0.00,Wunderground v.1.15,2013-05-24 16:55:00,
2013-05-24 10:05:00,59.8,46.7,30.02,South,171,1.0,1.0,62,0.00,,,0.00,Wunderground v.1.15,2013-05-24 17:05:00,
2013-05-24 10:10:00,60.3,46.8,30.01,ESE,103,1.0,1.0,61,0.00,,,0.00,Wunderground v.1.15,2013-05-24 17:10:00,
2013-05-24 10:15:00,60.8,46.8,30.02,ESE,114,1.0,2.0,60,0.00,,,0.00,Wunderground v.1.15,2013-05-24 17:15:00,
2013-05-24 10:20:00,60.9,45.6,30.02,South,174,1.0,1.0,57,0.00,,,0.00,Wunderground v.1.15,2013-05-24 17:20:00,
2013-05-24 10:25:00,61.3,45.9,30.01,ESE,111,1.0,1.0,57,0.00,,,0.00,Wunderground v.1.15,2013-05-24 17:25:00,
2013-05-24 10:30:00,61.9,45.5,30.01,SSE,151,1.0,2.0,55,0.00,,,0.00,Wunderground v.1.15,2013-05-24 17:30:00,
2013-05-24 10:35:00,62.2,45.3,30.01,SSE,159,1.0,2.0,54,0.00,,,0.00,Wunderground v.1.15,2013-05-24 17:35:00,
2013-05-24 10:40:00,62.5,45.6,30.01,ESE,119,1.0,2.0,54,0.00,,,0.00,Wunderground v.1.15,2013-05-24 17:40:00,
2013-05-24 10:45:00,62.9,42.9,30.02,West,273,1.0,2.0,48,0.00,,,0.00,Wunderground v.1.15,2013-05-24 17:45:00,
2013-05-24 10:55:00,64.0,41.6,30.01,WSW,258,1.0,2.0,44,0.00,,,0.00,Wunderground v.1.15,2013-05-24 17:55:00,
2013-05-24 11:00:00,64.9,42.5,30.01,WSW,252,1.0,1.0,44,0.00,,,0.00,Wunderground v.1.15,2013-05-24 18:00:00,
2013-05-24 11:05:00,65.8,42.1,30.02,West,263,1.0,1.0,42,0.00,,,0.00,Wunderground v.1.15,2013-05-24 18:05:00,
2013-05-24 11:10:00,65.8,42.1,30.01,West,276,1.0,1.0,42,0.00,,,0.00,Wunderground v.1.15,2013-05-24 18:10:00,
2013-05-24 11:15:00,65.8,42.7,30.01,ESE,119,1.0,1.0,43,0.00,,,0.00,Wunderground v.1.15,2013-05-24 18:15:00,
2013-05-24 11:20:00,66.5,42.7,30.01,WNW,288,1.0,3.0,42,0.00,,,0.00,Wunderground v.1.15,2013-05-24 18:20:00,
2013-05-24 11:25:00,66.6,41.5,30.01,WSW,257,1.0,3.0,40,0.00,,,0.00,Wunderground v.1.15,2013-05-24 18:25:00,
2013-05-24 11:35:00,65.9,43.4,30.01,NW,307,1.0,3.0,44,0.00,,,0.00,Wunderground v.1.15,2013-05-24 18:35:00,
2013-05-24 11:40:00,65.9,42.8,30.01,WNW,288,2.0,2.0,43,0.00,,,0.00,Wunderground v.1.15,2013-05-24 18:40:00,
2013-05-24 11:45:00,65.9,43.4,30.01,West,259,2.0,4.0,44,0.00,,,0.00,Wunderground v.1.15,2013-05-24 18:45:00,
2013-05-24 11:55:00,65.7,43.2,30.02,WNW,292,2.0,3.0,44,0.00,,,0.00,Wunderground v.1.15,2013-05-24 18:55:00,
2013-05-24 12:00:00,65.7,43.2,30.02,West,270,2.0,2.0,44,0.00,,,0.00,Wunderground v.1.15,2013-05-24 19:00:00,
2013-05-24 12:10:00,65.8,43.3,30.02,North,355,2.0,2.0,44,0.00,,,0.00,Wunderground v.1.15,2013-05-24 19:10:00,
2013-05-24 12:15:00,65.8,43.3,30.01,West,260,2.0,2.0,44,0.00,,,0.00,Wunderground v.1.15,2013-05-24 19:15:00,
2013-05-24 12:20:00,65.4,42.3,30.01,NW,312,2.0,2.0,43,0.00,,,0.00,Wunderground v.1.15,2013-05-24 19:20:00,
2013-05-24 12:25:00,65.6,41.9,30.01,WNW,299,2.0,2.0,42,0.00,,,0.00,Wunderground v.1.15,2013-05-24 19:25:00,
2013-05-24 12:35:00,65.9,40.2,30.01,WSW,252,1.0,5.0,39,0.00,,,0.00,Wunderground v.1.15,2013-05-24 19:35:00,
2013-05-24 12:40:00,66.2,41.2,30.01,West,263,2.0,3.0,40,0.00,,,0.00,Wunderground v.1.15,2013-05-24 19:40:00,
2013-05-24 12:50:00,66.5,41.4,30.01,WSW,256,2.0,2.0,40,0.00,,,0.00,Wunderground v.1.15,2013-05-24 19:50:00,
2013-05-24 12:55:00,67.0,41.9,30.01,West,260,2.0,2.0,40,0.00,,,0.00,Wunderground v.1.15,2013-05-24 19:55:00,
2013-05-24 13:00:00,66.9,42.4,30.01,West,271,2.0,2.0,41,0.00,,,0.00,Wunderground v.1.15,2013-05-24 20:00:00,
2013-05-24 13:05:00,66.7,42.2,30.01,West,277,2.0,2.0,41,0.00,,,0.00,Wunderground v.1.15,2013-05-24 20:05:00,
2013-05-24 13:10:00,66.9,41.1,30.01,WSW,258,2.0,2.0,39,0.00,,,0.00,Wunderground v.1.15,2013-05-24 20:10:00,
2013-05-24 13:15:00,67.1,41.3,30.01,WNW,284,1.0,2.0,39,0.00,,,0.00,Wunderground v.1.15,2013-05-24 20:15:00,
2013-05-24 13:25:00,67.5,38.9,30.00,West,266,1.0,4.0,35,0.00,,,0.00,Wunderground v.1.15,2013-05-24 20:25:00,
2013-05-24 13:30:00,67.4,39.5,30.00,West,281,2.0,2.0,36,0.00,,,0.00,Wunderground v.1.15,2013-05-24 20:30:00,
2013-05-24 13:35:00,67.2,38.6,30.00,WSW,253,2.0,4.0,35,0.00,,,0.00,Wunderground v.1.15,2013-05-24 20:35:00,
2013-05-24 13:45:00,66.9,39.1,30.00,West,278,2.0,4.0,36,0.00,,,0.00,Wunderground v.1.15,2013-05-24 20:45:00,
2013-05-24 13:50:00,66.9,40.5,30.00,NW,309,2.0,2.0,38,0.00,,,0.00,Wunderground v.1.15,2013-05-24 20:50:00,
2013-05-24 13:55:00,66.8,39.7,30.00,North,9,2.0,2.0,37,0.00,,,0.00,Wunderground v.1.15,2013-05-24 20:55:00,
2013-05-24 14:00:00,67.4,40.2,30.00,SW,222,2.0,2.0,37,0.00,,,0.00,Wunderground v.1.15,2013-05-24 21:00:00,
2013-05-24 14:10:00,68.2,42.9,30.00,East,86,2.0,2.0,40,0.00,,,0.00,Wunderground v.1.15,2013-05-24 21:10:00,
2013-05-24 14:15:00,68.3,42.4,30.00,WSW,250,2.0,2.0,39,0.00,,,0.00,Wunderground v.1.15,2013-05-24 21:15:00,
2013-05-24 14:20:00,67.5,43.6,30.00,WNW,291,2.0,4.0,42,0.00,,,0.00,Wunderground v.1.15,2013-05-24 21:20:00,
2013-05-24 14:25:00,67.6,43.1,30.00,SE,126,2.0,4.0,41,0.00,,,0.00,Wunderground v.1.15,2013-05-24 21:25:00,
2013-05-24 14:30:00,67.9,43.3,30.00,SW,234,1.0,2.0,41,0.00,,,0.00,Wunderground v.1.15,2013-05-24 21:30:00,
2013-05-24 14:35:00,68.1,42.2,30.00,West,259,2.0,2.0,39,0.00,,,0.00,Wunderground v.1.15,2013-05-24 21:35:00,
2013-05-24 14:40:00,68.4,43.1,30.00,East,100,2.0,2.0,40,0.00,,,0.00,Wunderground v.1.15,2013-05-24 21:40:00,
2013-05-24 14:50:00,68.7,42.7,30.00,ENE,65,1.0,1.0,39,0.00,,,0.00,Wunderground v.1.15,2013-05-24 21:50:00,
2013-05-24 14:55:00,68.7,42.1,30.00,West,259,1.0,1.0,38,0.00,,,0.00,Wunderground v.1.15,2013-05-24 21:55:00,
2013-05-24 15:00:00,68.8,42.1,30.00,SE,128,2.0,2.0,38,0.00,,,0.00,Wunderground v.1.15,2013-05-24 22:00:00,
2013-05-24 15:05:00,68.5,41.9,30.00,West,267,2.0,2.0,38,0.00,,,0.00,Wunderground v.1.15,2013-05-24 22:05:00,
2013-05-24 15:10:00,68.8,41.5,29.99,ESE,121,2.0,2.0,37,0.00,,,0.00,Wunderground v.1.15,2013-05-24 22:10:00,
2013-05-24 15:15:00,68.6,42.0,29.99,East,92,1.0,2.0,38,0.00,,,0.00,Wunderground v.1.15,2013-05-24 22:15:00,
2013-05-24 15:25:00,69.2,42.5,29.99,SSE,165,1.0,4.0,38,0.00,,,0.00,Wunderground v.1.15,2013-05-24 22:25:00,
2013-05-24 15:35:00,69.8,42.3,29.99,West,268,1.0,1.0,37,0.00,,,0.00,Wunderground v.1.15,2013-05-24 22:35:00,
2013-05-24 15:40:00,69.8,42.3,29.99,WNW,286,1.0,2.0,37,0.00,,,0.00,Wunderground v.1.15,2013-05-24 22:40:00,
2013-05-24 15:45:00,69.3,41.9,29.99,WSW,250,2.0,2.0,37,0.00,,,0.00,Wunderground v.1.15,2013-05-24 22:45:00,
2013-05-24 15:50:00,68.4,41.8,29.99,WNW,288,2.0,2.0,38,0.00,,,0.00,Wunderground v.1.15,2013-05-24 22:50:00,
2013-05-24 15:55:00,67.9,42.7,29.99,SSE,151,2.0,3.0,40,0.00,,,0.00,Wunderground v.1.15,2013-05-24 22:55:00,
2013-05-24 16:05:00,67.0,42.5,29.99,WNW,299,2.0,2.0,41,0.00,,,0.00,Wunderground v.1.15,2013-05-24 23:05:00,
2013-05-24 16:10:00,65.6,43.1,29.99,East,101,3.0,3.0,44,0.00,,,0.00,Wunderground v.1.15,2013-05-24 23:10:00,
2013-05-24 16:15:00,66.4,43.8,29.98,West,261,2.0,3.0,44,0.00,,,0.00,Wunderground v.1.15,2013-05-24 23:15:00,
2013-05-24 16:25:00,67.3,43.4,29.98,WSW,246,2.0,4.0,42,0.00,,,0.00,Wunderground v.1.15,2013-05-24 23:25:00,
2013-05-24 16:30:00,67.4,44.1,29.98,SW,217,2.0,2.0,43,0.00,,,0.00,Wunderground v.1.15,2013-05-24 23:30:00,
2013-05-24 16:35:00,67.5,42.3,29.98,West,259,1.0,2.0,40,0.00,,,0.00,Wunderground v.1.15,2013-05-24 23:35:00,
2013-05-24 16:40:00,67.2,41.4,29.98,WSW,241,1.0,3.0,39,0.00,,,0.00,Wunderground v.1.15,2013-05-24 23:40:00,
2013-05-24 16:50:00,65.4,39.1,29.98,WSW,255,3.0,5.0,38,0.00,,,0.00,Wunderground v.1.15,2013-05-24 23:50:00,
2013-05-24 16:55:00,65.5,38.5,29.98,WSW,256,2.0,5.0,37,0.00,,,0.00,Wunderground v.1.15,2013-05-24 23:55:00,
2013-05-24 17:00:00,65.8,38.1,29.98,WNW,302,1.0,4.0,36,0.00,,,0.00,Wunderground v.1.15,2013-05-25 00:00:00,
2013-05-24 17:10:00,65.9,39.6,29.97,WSW,242,2.0,2.0,38,0.00,,,0.00,Wunderground v.1.15,2013-05-25 00:10:00,
2013-05-24 17:15:00,65.8,38.8,29.97,West,266,1.0,2.0,37,0.00,,,0.00,Wunderground v.1.15,2013-05-25 00:15:00,
2013-05-24 17:20:00,65.9,40.2,29.97,West,261,1.0,1.0,39,0.00,,,0.00,Wunderground v.1.15,2013-05-25 00:20:00,
2013-05-24 17:25:00,66.2,39.8,29.97,NW,324,1.0,1.0,38,0.00,,,0.00,Wunderground v.1.15,2013-05-25 00:25:00,
2013-05-24 17:35:00,65.9,38.9,29.97,NW,304,2.0,3.0,37,0.00,,,0.00,Wunderground v.1.15,2013-05-25 00:35:00,
2013-05-24 17:40:00,65.2,40.9,29.97,West,269,2.0,2.0,41,0.00,,,0.00,Wunderground v.1.15,2013-05-25 00:40:00,
2013-05-24 17:50:00,64.9,43.0,29.97,WSW,256,1.0,1.0,45,0.00,,,0.00,Wunderground v.1.15,2013-05-25 00:50:00,
2013-05-24 17:55:00,64.9,43.0,29.97,SSE,161,1.0,1.0,45,0.00,,,0.00,Wunderground v.1.15,2013-05-25 00:55:00,
2013-05-24 18:00:00,65.3,44.0,29.97,WNW,287,1.0,2.0,46,0.00,,,0.00,Wunderground v.1.15,2013-05-25 01:00:00,
2013-05-24 18:10:00,64.6,44.5,29.97,SSE,163,1.0,1.0,48,0.00,,,0.00,Wunderground v.1.15,2013-05-25 01:10:00,
2013-05-24 18:15:00,64.5,43.8,29.97,NW,317,0.0,1.0,47,0.00,,,0.00,Wunderground v.1.15,2013-05-25 01:15:00,
2013-05-24 18:20:00,64.3,44.7,29.97,WSW,246,1.0,1.0,49,0.00,,,0.00,Wunderground v.1.15,2013-05-25 01:20:00,
2013-05-24 18:25:00,64.4,44.8,29.96,West,267,0.0,2.0,49,0.00,,,0.00,Wunderground v.1.15,2013-05-25 01:25:00,
2013-05-24 18:35:00,63.4,44.9,29.96,West,260,1.0,1.0,51,0.00,,,0.00,Wunderground v.1.15,2013-05-25 01:35:00,
2013-05-24 18:40:00,62.6,44.7,29.97,North,355,1.0,1.0,52,0.00,,,0.00,Wunderground v.1.15,2013-05-25 01:40:00,
2013-05-24 18:45:00,61.7,44.4,29.97,West,266,1.0,3.0,53,0.00,,,0.00,Wunderground v.1.15,2013-05-25 01:45:00,
2013-05-24 18:50:00,60.8,43.6,29.97,West,259,1.0,1.0,53,0.00,,,0.00,Wunderground v.1.15,2013-05-25 01:50:00,
2013-05-24 19:00:00,59.5,43.8,29.97,WSW,237,1.0,1.0,56,0.00,,,0.00,Wunderground v.1.15,2013-05-25 02:00:00,
2013-05-24 19:05:00,58.9,43.7,29.97,West,262,1.0,2.0,57,0.00,,,0.00,Wunderground v.1.15,2013-05-25 02:05:00,
2013-05-24 19:10:00,58.5,44.2,29.96,WNW,291,1.0,1.0,59,0.00,,,0.00,Wunderground v.1.15,2013-05-25 02:10:00,
2013-05-24 19:15:00,58.2,43.9,29.97,West,275,1.0,1.0,59,0.00,,,0.00,Wunderground v.1.15,2013-05-25 02:15:00,
2013-05-24 19:25:00,57.7,44.3,29.97,West,263,1.0,1.0,61,0.00,,,0.00,Wunderground v.1.15,2013-05-25 02:25:00,
2013-05-24 19:30:00,57.4,44.1,29.97,West,272,0.0,0.0,61,0.00,,,0.00,Wunderground v.1.15,2013-05-25 02:30:00,
2013-05-24 19:35:00,57.2,44.3,29.97,WSW,252,0.0,0.0,62,0.00,,,0.00,Wunderground v.1.15,2013-05-25 02:35:00,
2013-05-24 19:45:00,56.7,44.2,29.97,ESE,103,0.0,0.0,63,0.00,,,0.00,Wunderground v.1.15,2013-05-25 02:45:00,
2013-05-24 19:50:00,56.5,44.0,29.97,West,261,0.0,2.0,63,0.00,,,0.00,Wunderground v.1.15,2013-05-25 02:50:00,
2013-05-24 19:55:00,56.3,44.3,29.97,West,262,0.0,2.0,64,0.00,,,0.00,Wunderground v.1.15,2013-05-25 02:55:00,
2013-05-24 20:00:00,56.2,44.2,29.97,West,262,0.0,0.0,64,0.00,,,0.00,Wunderground v.1.15,2013-05-25 03:00:00,
2013-05-24 20:05:00,55.9,44.3,29.97,WSW,238,0.0,0.0,65,0.00,,,0.00,Wunderground v.1.15,2013-05-25 03:05:00,
2013-05-24 20:15:00,55.1,43.9,29.97,SSE,163,0.0,0.0,66,0.00,,,0.00,Wunderground v.1.15,2013-05-25 03:15:00,
2013-05-24 20:20:00,54.6,43.9,29.97,SSE,165,0.0,0.0,67,0.00,,,0.00,Wunderground v.1.15,2013-05-25 03:20:00,
2013-05-24 20:25:00,54.2,43.9,29.97,SSE,166,0.0,0.0,68,0.00,,,0.00,Wunderground v.1.15,2013-05-25 03:25:00,
2013-05-24 20:35:00,53.1,43.6,29.97,SE,145,1.0,1.0,70,0.00,,,0.00,Wunderground v.1.15,2013-05-25 03:35:00,
2013-05-24 20:40:00,52.6,43.5,29.97,SE,126,1.0,1.0,71,0.00,,,0.00,Wunderground v.1.15,2013-05-25 03:40:00,
2013-05-24 20:45:00,52.3,43.5,29.97,SE,125,0.0,1.0,72,0.00,,,0.00,Wunderground v.1.15,2013-05-25 03:45:00,
2013-05-24 20:55:00,51.7,43.3,29.98,SE,126,0.0,0.0,73,0.00,,,0.00,Wunderground v.1.15,2013-05-25 03:55:00,
2013-05-24 21:00:00,51.4,43.4,29.98,SE,126,0.0,0.0,74,0.00,,,0.00,Wunderground v.1.15,2013-05-25 04:00:00,
2013-05-24 21:05:00,51.1,43.1,29.98,SE,126,0.0,0.0,74,0.00,,,0.00,Wunderground v.1.15,2013-05-25 04:05:00,
2013-05-24 21:10:00,50.9,43.3,29.98,SE,126,0.0,0.0,75,0.00,,,0.00,Wunderground v.1.15,2013-05-25 04:10:00,
2013-05-24 21:15:00,50.6,43.0,29.98,SE,128,0.0,0.0,75,0.00,,,0.00,Wunderground v.1.15,2013-05-25 04:15:00,
2013-05-24 21:20:00,50.4,43.1,29.98,SE,128,0.0,0.0,76,0.00,,,0.00,Wunderground v.1.15,2013-05-25 04:20:00,
2013-05-24 21:25:00,50.1,43.2,29.98,SE,128,0.0,0.0,77,0.00,,,0.00,Wunderground v.1.15,2013-05-25 04:25:00,
2013-05-24 21:35:00,49.6,43.4,29.98,SE,128,0.0,0.0,79,0.00,,,0.00,Wunderground v.1.15,2013-05-25 04:35:00,
2013-05-24 21:40:00,49.3,43.1,29.99,SE,128,0.0,0.0,79,0.00,,,0.00,Wunderground v.1.15,2013-05-25 04:40:00,
2013-05-24 21:50:00,48.9,43.0,29.99,SE,128,0.0,0.0,80,0.00,,,0.00,Wunderground v.1.15,2013-05-25 04:50:00,
2013-05-24 21:55:00,48.7,43.1,29.99,SE,136,1.0,2.0,81,0.00,,,0.00,Wunderground v.1.15,2013-05-25 04:55:00,
2013-05-24 22:00:00,48.6,43.0,29.99,SE,136,1.0,1.0,81,0.00,,,0.00,Wunderground v.1.15,2013-05-25 05:00:00,
2013-05-24 22:10:00,48.3,43.4,29.99,SE,144,1.0,1.0,83,0.00,,,0.00,Wunderground v.1.15,2013-05-25 05:10:00,
2013-05-24 22:15:00,48.2,43.3,29.99,SSE,150,1.0,1.0,83,0.00,,,0.00,Wunderground v.1.15,2013-05-25 05:15:00,
2013-05-24 22:25:00,48.1,43.2,29.99,East,96,0.0,1.0,83,0.00,,,0.00,Wunderground v.1.15,2013-05-25 05:25:00,
2013-05-24 22:30:00,48.0,43.4,29.99,SSE,163,0.0,0.0,84,0.00,,,0.00,Wunderground v.1.15,2013-05-25 05:30:00,
2013-05-24 22:40:00,47.8,43.2,29.99,SSE,163,0.0,0.0,84,0.00,,,0.00,Wunderground v.1.15,2013-05-25 05:40:00,
2013-05-24 22:45:00,47.7,43.1,30.00,SSE,163,0.0,1.0,84,0.00,,,0.00,Wunderground v.1.15,2013-05-25 05:45:00,
2013-05-24 22:50:00,47.6,43.3,30.00,SSE,164,0.0,1.0,85,0.00,,,0.00,Wunderground v.1.15,2013-05-25 05:50:00,
2013-05-24 22:55:00,47.5,43.2,30.00,SE,138,0.0,1.0,85,0.00,,,0.00,Wunderground v.1.15,2013-05-25 05:55:00,
2013-05-24 23:05:00,47.3,43.3,30.00,SE,138,0.0,0.0,86,0.00,,,0.00,Wunderground v.1.15,2013-05-25 06:05:00,
2013-05-24 23:10:00,47.3,43.3,30.00,SE,139,0.0,0.0,86,0.00,,,0.00,Wunderground v.1.15,2013-05-25 06:10:00,
2013-05-24 23:15:00,47.3,43.3,29.99,SE,139,0.0,0.0,86,0.00,,,0.00,Wunderground v.1.15,2013-05-25 06:15:00,
2013-05-24 23:20:00,47.2,43.2,29.99,SE,140,0.0,0.0,86,0.00,,,0.00,Wunderground v.1.15,2013-05-25 06:20:00,
2013-05-24 23:25:00,47.1,43.4,29.99,SE,126,0.0,4.0,87,0.00,,,0.00,Wunderground v.1.15,2013-05-25 06:25:00,
2013-05-24 23:35:00,47.1,43.4,29.99,SE,146,1.0,1.0,87,0.00,,,0.00,Wunderground v.1.15,2013-05-25 06:35:00,
2013-05-24 23:40:00,47.1,43.4,29.99,SSE,147,0.0,0.0,87,0.00,,,0.00,Wunderground v.1.15,2013-05-25 06:40:00,
2013-05-24 23:45:00,47.1,43.4,29.99,SSE,147,0.0,0.0,87,0.00,,,0.00,Wunderground v.1.15,2013-05-25 06:45:00,
2013-05-24 23:50:00,47.0,43.3,29.99,SSE,150,0.0,0.0,87,0.00,,,0.00,Wunderground v.1.15,2013-05-25 06:50:00,